Time;durP1;ratioP1;P1;durP2;ratioP2;P2;SDS_P1;SDS_P2;PMS_P1;PMS_P2;Temp;Humidity;BMP_temperature;BMP_pressure;BME280_temperature;BME280_humidity;BME280_pressure;Samples;Min_cycle;Max_cycle;Signal;HPM_P1;HPM_P2
2022/03/22 00:01:21;;;;;;;16.90;13.90;;;3.10;99.90;;;;;;5069137;28;20439;-68
2022/03/22 00:03:48;;;;;;;23.00;16.50;;;3.10;99.90;;;;;;5070042;28;20447;-68
2022/03/22 00:06:15;;;;;;;18.87;15.40;;;3.00;99.90;;;;;;5071384;28;20518;-67
2022/03/22 00:08:42;;;;;;;16.80;14.97;;;2.90;99.90;;;;;;5070015;28;20538;-67
2022/03/22 00:11:09;;;;;;;21.37;16.37;;;2.80;99.90;;;;;;5070163;28;20435;-67
2022/03/22 00:13:36;;;;;;;18.17;13.50;;;2.80;99.90;;;;;;5070061;28;20545;-68
2022/03/22 00:16:02;;;;;;;19.40;15.73;;;2.70;99.90;;;;;;5069555;28;20895;-68
2022/03/22 00:18:31;;;;;;;22.87;14.93;;;2.60;99.90;;;;;;5069644;28;20545;-68
2022/03/22 00:20:58;;;;;;;22.20;16.30;;;2.60;99.90;;;;;;5069924;28;20446;-67
2022/03/22 00:23:25;;;;;;;23.60;16.03;;;2.60;99.90;;;;;;5070113;28;21018;-68
2022/03/22 00:25:52;;;;;;;19.03;14.93;;;2.70;99.90;;;;;;5071289;28;20913;-67
2022/03/22 00:28:19;;;;;;;20.80;15.03;;;2.70;99.90;;;;;;5073815;28;20447;-68
2022/03/22 00:30:46;;;;;;;20.17;16.13;;;2.60;99.90;;;;;;5073827;28;20447;-68
2022/03/22 00:33:13;;;;;;;21.87;16.90;;;2.60;99.90;;;;;;5073683;28;20594;-68
2022/03/22 00:35:42;;;;;;;21.93;15.50;;;2.50;99.90;;;;;;5073895;28;20873;-68
2022/03/22 00:38:11;;;;;;;19.50;15.90;;;2.50;99.90;;;;;;5073074;28;20457;-68
2022/03/22 00:40:40;;;;;;;22.47;16.60;;;2.50;99.90;;;;;;5074063;28;20442;-68
2022/03/22 00:43:09;;;;;;;20.43;16.57;;;2.50;99.90;;;;;;5073909;28;20481;-68
2022/03/22 00:45:37;;;;;;;21.50;16.30;;;2.50;99.90;;;;;;5073161;28;20481;-68
2022/03/22 00:48:06;;;;;;;19.40;15.60;;;2.40;99.90;;;;;;5073594;28;20454;-68
2022/03/22 00:50:35;;;;;;;27.00;16.90;;;2.30;99.90;;;;;;5073648;28;20541;-67
2022/03/22 00:53:05;;;;;;;21.53;16.20;;;2.20;99.90;;;;;;5073681;28;20522;-68
2022/03/22 00:55:33;;;;;;;22.57;16.30;;;2.20;99.90;;;;;;5073388;28;20443;-67
2022/03/22 00:58:00;;;;;;;22.93;15.60;;;2.20;99.90;;;;;;5073889;28;20447;-67
2022/03/22 01:00:28;;;;;;;21.03;16.60;;;2.10;99.90;;;;;;5073469;28;20503;-68
2022/03/22 01:02:57;;;;;;;23.43;17.57;;;2.00;99.90;;;;;;5073589;28;20875;-67
2022/03/22 01:05:25;;;;;;;24.30;17.33;;;2.00;99.90;;;;;;5072913;28;20457;-67
2022/03/22 01:07:54;;;;;;;21.43;16.73;;;2.00;99.90;;;;;;5073318;28;20439;-67
2022/03/22 01:10:25;;;;;;;22.23;15.63;;;2.00;99.90;;;;;;5073142;28;20501;-67
2022/03/22 01:12:52;;;;;;;23.40;16.63;;;2.00;99.90;;;;;;5072985;28;20450;-68
2022/03/22 01:15:21;;;;;;;22.30;16.80;;;2.00;99.90;;;;;;5072987;28;20455;-67
2022/03/22 01:17:50;;;;;;;19.47;15.57;;;2.00;99.90;;;;;;5072997;28;20455;-68
2022/03/22 01:20:20;;;;;;;20.50;16.60;;;2.00;99.90;;;;;;5072758;28;20455;-67
2022/03/22 01:22:48;;;;;;;24.00;17.67;;;2.00;99.90;;;;;;5073077;28;20550;-67
2022/03/22 01:25:19;;;;;;;19.45;15.75;;;2.00;99.90;;;;;;5072500;28;20567;-68
2022/03/22 01:27:49;;;;;;;23.80;17.00;;;1.90;99.90;;;;;;5072814;28;20516;-67
2022/03/22 01:30:19;;;;;;;29.43;16.17;;;1.80;99.90;;;;;;5072798;28;20435;-67
2022/03/22 01:32:46;;;;;;;22.53;16.47;;;1.80;99.90;;;;;;5072827;28;20453;-67
2022/03/22 01:35:13;;;;;;;21.70;15.40;;;1.70;99.90;;;;;;5072238;28;20551;-67
2022/03/22 01:37:41;;;;;;;20.20;15.50;;;1.80;99.90;;;;;;5071791;28;20471;-68
2022/03/22 01:40:09;;;;;;;23.73;17.40;;;1.80;99.90;;;;;;5072665;28;20453;-68
2022/03/22 01:42:37;;;;;;;20.37;16.60;;;1.70;99.90;;;;;;5072925;28;20471;-68
2022/03/22 01:45:07;;;;;;;23.43;17.43;;;1.70;99.90;;;;;;5072807;28;20453;-68
2022/03/22 01:47:35;;;;;;;24.23;16.40;;;1.60;99.90;;;;;;5072472;28;20495;-67
2022/03/22 01:50:02;;;;;;;21.00;16.13;;;1.60;99.90;;;;;;5072399;28;20445;-68
2022/03/22 01:52:29;;;;;;;20.73;16.47;;;1.60;99.90;;;;;;5072236;28;20472;-67
2022/03/22 01:54:56;;;;;;;20.67;17.00;;;1.60;99.90;;;;;;5072259;28;20770;-66
2022/03/22 01:57:25;;;;;;;22.63;16.90;;;1.50;99.90;;;;;;5072172;28;20459;-67
2022/03/22 01:59:52;;;;;;;23.40;17.00;;;1.50;99.90;;;;;;5073118;28;20447;-67
2022/03/22 02:07:51;;;;;;;23.87;17.37;;;1.30;99.90;;;;;;5072809;28;20427;-67
2022/03/22 02:10:18;;;;;;;20.60;15.73;;;1.30;99.90;;;;;;5072125;28;20532;-67
2022/03/22 02:12:46;;;;;;;18.47;15.70;;;1.40;99.90;;;;;;5072228;28;20503;-67
2022/03/22 02:15:14;;;;;;;18.00;14.50;;;1.30;99.90;;;;;;5071772;28;20933;-67
2022/03/22 02:17:45;;;;;;;20.40;15.67;;;1.40;99.90;;;;;;5071976;28;20963;-67
2022/03/22 02:20:12;;;;;;;22.43;15.60;;;1.40;99.90;;;;;;5072311;28;20515;-67
2022/03/22 02:22:45;;;;;;;23.60;16.80;;;1.40;99.90;;;;;;5072073;28;20542;-67
2022/03/22 02:25:15;;;;;;;19.43;14.97;;;1.40;99.90;;;;;;5072073;28;20707;-67
2022/03/22 02:27:44;;;;;;;23.23;15.23;;;1.40;99.90;;;;;;5072046;28;21103;-67
2022/03/22 02:30:12;;;;;;;18.73;14.77;;;1.40;99.90;;;;;;5072163;28;20462;-67
2022/03/22 02:32:39;;;;;;;20.27;16.47;;;1.20;99.90;;;;;;5072299;28;20737;-67
2022/03/22 02:35:07;;;;;;;22.07;15.83;;;1.20;99.90;;;;;;5072016;28;20443;-67
2022/03/22 02:37:34;;;;;;;16.73;14.13;;;1.10;99.90;;;;;;5072004;28;20554;-69
2022/03/22 02:40:01;;;;;;;26.20;16.10;;;1.10;99.90;;;;;;5071874;28;20474;-67
2022/03/22 02:42:29;;;;;;;22.53;16.50;;;1.30;99.90;;;;;;5072705;28;20439;-67
2022/03/22 02:44:57;;;;;;;20.20;16.00;;;1.30;99.90;;;;;;5071324;28;20534;-66
2022/03/22 02:47:23;;;;;;;22.17;15.90;;;1.30;99.90;;;;;;5071438;28;20836;-67
2022/03/22 02:49:50;;;;;;;25.63;17.27;;;1.20;99.90;;;;;;5070398;28;20439;-66
2022/03/22 02:52:17;;;;;;;23.47;15.93;;;1.20;99.90;;;;;;5071391;28;20522;-67
2022/03/22 02:54:44;;;;;;;18.60;15.80;;;1.10;99.90;;;;;;5071126;28;20465;-67
2022/03/22 02:57:11;;;;;;;22.30;15.90;;;1.10;99.90;;;;;;5073416;28;21856;-67
2022/03/22 02:59:39;;;;;;;25.30;17.37;;;1.10;99.90;;;;;;5071281;28;20443;-67
2022/03/22 03:02:06;;;;;;;24.10;16.03;;;1.10;99.90;;;;;;5071117;28;20526;-67
2022/03/22 03:04:33;;;;;;;25.40;17.33;;;1.10;99.90;;;;;;5070732;28;20547;-67
2022/03/22 03:07:00;;;;;;;20.50;16.23;;;1.20;99.90;;;;;;5070962;28;20486;-67
2022/03/22 03:09:26;;;;;;;18.13;15.60;;;1.20;99.90;;;;;;5070725;28;20478;-67
2022/03/22 03:11:53;;;;;;;23.20;16.83;;;1.10;99.90;;;;;;5071087;28;20838;-67
2022/03/22 03:17:07;;;;;;;21.87;16.43;;;1.00;99.90;;;;;;5070870;28;20481;-67
2022/03/22 03:19:34;;;;;;;21.67;17.23;;;0.90;99.90;;;;;;5070580;28;20506;-67
2022/03/22 03:22:02;;;;;;;21.77;16.87;;;0.90;99.90;;;;;;5070720;28;20439;-67
2022/03/22 03:24:29;;;;;;;21.43;15.57;;;0.90;99.90;;;;;;5070476;28;20451;-67
2022/03/22 03:26:56;;;;;;;19.90;15.90;;;0.80;99.90;;;;;;5070551;28;20489;-67
2022/03/22 03:29:23;;;;;;;21.20;16.80;;;0.90;99.90;;;;;;5071111;28;20977;-67
2022/03/22 03:31:50;;;;;;;22.00;16.60;;;0.80;99.90;;;;;;5070628;28;20525;-67
2022/03/22 03:34:19;;;;;;;30.60;16.27;;;0.80;99.90;;;;;;5070255;28;20539;-67
2022/03/22 03:36:46;;;;;;;23.20;16.23;;;0.90;99.90;;;;;;5070344;28;20459;-67
2022/03/22 03:39:14;;;;;;;22.63;16.43;;;0.90;99.90;;;;;;5070842;28;20483;-66
2022/03/22 03:41:56;;;;;;;20.70;15.50;;;1.00;99.90;;;;;;5070798;28;20872;-68
2022/03/22 03:47:11;;;;;;;22.17;14.93;;;0.90;99.90;;;;;;5070333;28;20481;-67
2022/03/22 03:49:42;;;;;;;21.20;15.10;;;1.00;99.90;;;;;;5070299;28;21118;-67
2022/03/22 03:52:10;;;;;;;21.90;16.97;;;0.90;99.90;;;;;;5070432;28;20444;-67
2022/03/22 03:54:38;;;;;;;23.83;15.77;;;0.90;99.90;;;;;;5069902;28;20488;-67
2022/03/22 03:57:05;;;;;;;19.53;15.50;;;0.80;99.90;;;;;;5070466;28;20839;-67
2022/03/22 03:59:32;;;;;;;22.53;16.13;;;0.80;99.90;;;;;;5070299;28;21030;-67
2022/03/22 04:01:59;;;;;;;21.93;16.63;;;0.70;99.90;;;;;;5070113;28;20447;-67
2022/03/22 04:04:26;;;;;;;22.13;16.50;;;0.60;99.90;;;;;;5069690;28;20478;-67
2022/03/22 04:06:55;;;;;;;24.53;17.77;;;0.70;99.90;;;;;;5070190;28;20479;-68
2022/03/22 04:09:22;;;;;;;25.40;18.07;;;0.70;99.90;;;;;;5070116;28;20827;-67
2022/03/22 04:11:49;;;;;;;19.90;15.10;;;0.60;99.90;;;;;;5070428;28;20902;-66
2022/03/22 04:14:16;;;;;;;20.87;17.20;;;0.60;99.90;;;;;;5069904;28;20522;-67
2022/03/22 04:16:43;;;;;;;21.10;16.57;;;0.60;99.90;;;;;;5070214;28;20454;-68
2022/03/22 04:19:10;;;;;;;27.33;17.87;;;0.50;99.90;;;;;;5070501;28;20451;-67
2022/03/22 04:21:39;;;;;;;22.40;16.47;;;0.50;99.90;;;;;;5070376;28;20533;-67
2022/03/22 04:24:09;;;;;;;23.43;16.40;;;0.60;99.90;;;;;;5070364;28;20534;-67
2022/03/22 04:26:37;;;;;;;22.00;17.30;;;0.60;99.90;;;;;;5070060;28;20474;-66
2022/03/22 04:34:34;;;;;;;22.10;17.30;;;0.60;99.90;;;;;;5069740;28;20422;-67
2022/03/22 04:37:01;;;;;;;21.27;15.70;;;0.50;99.90;;;;;;5072087;28;20522;-67
2022/03/22 04:39:31;;;;;;;20.47;16.27;;;0.40;99.90;;;;;;5071035;28;20500;-67
2022/03/22 04:41:59;;;;;;;25.37;17.20;;;0.30;99.90;;;;;;5069950;28;20439;-67
2022/03/22 04:44:26;;;;;;;21.60;16.10;;;0.30;99.90;;;;;;5069910;28;20530;-66
2022/03/22 04:46:53;;;;;;;23.90;16.17;;;0.30;99.90;;;;;;5074761;22;20553;-65
2022/03/22 04:49:20;;;;;;;21.13;15.93;;;0.20;99.90;;;;;;5049415;28;20475;-65
2022/03/22 04:57:17;;;;;;;24.40;17.87;;;0.20;99.90;;;;;;5049441;28;20427;-65
2022/03/22 04:59:44;;;;;;;21.17;16.47;;;0.10;99.90;;;;;;5048925;28;20458;-65
2022/03/22 05:02:12;;;;;;;24.43;17.10;;;0.10;99.90;;;;;;5049221;28;20448;-66
2022/03/22 05:04:39;;;;;;;22.50;17.77;;;0.10;99.90;;;;;;5048601;28;20486;-65
2022/03/22 05:07:06;;;;;;;23.60;17.30;;;0.20;99.90;;;;;;5048647;28;20997;-66
2022/03/22 05:09:35;;;;;;;20.17;15.30;;;0.10;99.90;;;;;;5049231;28;20467;-65
2022/03/22 05:12:02;;;;;;;22.67;16.50;;;0.10;99.90;;;;;;5048716;28;20452;-65
2022/03/22 05:14:29;;;;;;;23.63;16.93;;;0.10;99.90;;;;;;5052281;28;20831;-66
2022/03/22 05:16:56;;;;;;;25.57;16.37;;;0.10;99.90;;;;;;5052725;28;20435;-66
2022/03/22 05:19:24;;;;;;;23.70;17.33;;;0.10;99.90;;;;;;5052718;28;20500;-66
2022/03/22 05:21:50;;;;;;;22.47;16.00;;;0.10;99.90;;;;;;5052232;28;20450;-66
2022/03/22 05:24:17;;;;;;;23.50;16.67;;;0.10;99.90;;;;;;5051904;28;20447;-68
2022/03/22 05:26:46;;;;;;;20.23;14.70;;;0.10;99.90;;;;;;5052090;28;20491;-67
2022/03/22 05:29:13;;;;;;;18.93;14.97;;;0.00;99.90;;;;;;5052619;28;20468;-68
2022/03/22 05:31:40;;;;;;;22.03;16.30;;;0.00;99.90;;;;;;5052435;28;20447;-70
2022/03/22 05:34:08;;;;;;;22.17;16.33;;;0.10;99.90;;;;;;5051980;28;20984;-69
2022/03/22 05:36:35;;;;;;;18.83;13.83;;;0.10;99.90;;;;;;5052440;28;20452;-66
2022/03/22 05:39:02;;;;;;;23.87;17.37;;;0.10;99.90;;;;;;5052655;28;20472;-66
2022/03/22 05:41:29;;;;;;;25.60;18.73;;;0.20;99.90;;;;;;5051862;28;20448;-71
2022/03/22 05:43:57;;;;;;;24.63;18.30;;;0.10;99.90;;;;;;5049187;28;20454;-64
2022/03/22 05:46:23;;;;;;;22.33;17.47;;;0.10;99.90;;;;;;5050799;28;21218;-67
2022/03/22 05:48:50;;;;;;;22.90;17.13;;;0.10;99.90;;;;;;5051290;28;20490;-65
2022/03/22 05:51:18;;;;;;;25.40;16.10;;;0.20;99.90;;;;;;5052107;28;20435;-66
2022/03/22 05:53:45;;;;;;;24.03;16.30;;;0.30;99.90;;;;;;5052126;28;20835;-65
2022/03/22 05:56:12;;;;;;;21.17;17.60;;;0.40;99.90;;;;;;5049547;28;20483;-65
2022/03/22 05:58:39;;;;;;;26.20;18.70;;;0.50;99.90;;;;;;5049397;28;20479;-65
2022/03/22 06:01:07;;;;;;;25.40;16.60;;;0.60;99.90;;;;;;5050707;28;20938;-66
2022/03/22 06:03:35;;;;;;;25.30;17.30;;;0.50;99.90;;;;;;5051263;28;20456;-66
2022/03/22 06:06:02;;;;;;;29.33;17.57;;;0.50;99.90;;;;;;5049381;28;20472;-65
2022/03/22 06:08:29;;;;;;;21.37;16.50;;;0.50;99.90;;;;;;5051221;28;20486;-65
2022/03/22 06:10:56;;;;;;;23.83;19.10;;;0.50;99.90;;;;;;5047474;28;20504;-66
2022/03/22 06:13:23;;;;;;;22.50;16.27;;;0.70;99.90;;;;;;5047502;28;20455;-67
2022/03/22 06:15:52;;;;;;;23.57;17.47;;;0.90;99.90;;;;;;5049420;28;20534;-66
2022/03/22 06:18:20;;;;;;;22.70;16.93;;;0.90;99.90;;;;;;5050161;28;21000;-65
2022/03/22 06:20:47;;;;;;;23.90;17.83;;;1.00;99.90;;;;;;5049253;28;20942;-66
2022/03/22 06:23:17;;;;;;;24.03;16.97;;;1.00;99.90;;;;;;5049198;28;20451;-65
2022/03/22 06:25:44;;;;;;;25.27;17.70;;;1.10;99.90;;;;;;5047396;28;20501;-66
2022/03/22 06:28:14;;;;;;;22.23;16.90;;;1.20;99.90;;;;;;5051081;28;20873;-66
2022/03/22 06:30:42;;;;;;;25.43;16.63;;;1.30;99.90;;;;;;5049921;28;20456;-66
2022/03/22 06:33:12;;;;;;;19.50;16.40;;;1.40;99.90;;;;;;5051013;28;20452;-65
2022/03/22 06:35:42;;;;;;;20.77;15.37;;;1.50;99.90;;;;;;5049954;28;20480;-65
2022/03/22 06:38:09;;;;;;;21.53;17.07;;;1.60;99.90;;;;;;5050656;28;20455;-63
2022/03/22 06:40:38;;;;;;;22.77;17.57;;;1.80;99.90;;;;;;5050807;28;20444;-65
2022/03/22 06:43:07;;;;;;;25.40;17.93;;;1.80;99.90;;;;;;5050747;28;20548;-65
2022/03/22 06:45:34;;;;;;;22.80;16.70;;;1.80;99.90;;;;;;5049977;28;20479;-65
2022/03/22 06:48:01;;;;;;;28.13;17.13;;;2.00;99.90;;;;;;5050693;28;20480;-65
2022/03/22 06:50:28;;;;;;;23.20;18.10;;;2.20;99.90;;;;;;5050637;28;20451;-65
2022/03/22 06:52:56;;;;;;;27.33;18.07;;;2.40;99.90;;;;;;5050913;28;20456;-65
2022/03/22 06:55:23;;;;;;;22.50;17.60;;;2.50;99.90;;;;;;5050787;28;20448;-64
2022/03/22 06:57:52;;;;;;;24.13;18.90;;;2.60;99.90;;;;;;5050522;28;20551;-66
2022/03/22 07:00:20;;;;;;;24.90;18.30;;;2.70;99.90;;;;;;5049980;28;20455;-65
2022/03/22 07:02:49;;;;;;;21.67;18.07;;;2.80;99.90;;;;;;5050460;28;20452;-65
2022/03/22 07:05:17;;;;;;;23.40;17.67;;;2.90;99.90;;;;;;5049439;28;20497;-66
2022/03/22 07:07:44;;;;;;;20.70;16.47;;;2.90;99.90;;;;;;5050045;28;20488;-66
2022/03/22 07:10:14;;;;;;;25.67;18.53;;;3.00;99.90;;;;;;5049933;28;20448;-65
2022/03/22 07:12:52;;;;;;;24.43;18.30;;;3.00;99.90;;;;;;5050140;28;20450;-66
2022/03/22 07:15:20;;;;;;;25.50;17.60;;;3.10;99.90;;;;;;5049445;28;20511;-66
2022/03/22 07:17:47;;;;;;;23.77;17.90;;;3.30;99.90;;;;;;5050285;28;20555;-66
2022/03/22 07:20:14;;;;;;;24.10;18.90;;;3.50;99.90;;;;;;5049833;28;20889;-66
2022/03/22 07:22:43;;;;;;;21.73;17.50;;;3.60;99.90;;;;;;5050223;28;20459;-65
2022/03/22 07:25:11;;;;;;;28.10;18.50;;;3.80;99.90;;;;;;5049831;28;20483;-66
2022/03/22 07:27:39;;;;;;;21.10;17.53;;;3.90;99.90;;;;;;5049914;28;21029;-66
2022/03/22 07:30:10;;;;;;;23.17;17.10;;;4.10;99.90;;;;;;5049935;28;20452;-66
2022/03/22 07:32:37;;;;;;;24.70;17.67;;;4.30;99.90;;;;;;5050089;28;20444;-66
2022/03/22 07:35:04;;;;;;;21.57;17.73;;;4.50;99.90;;;;;;5048830;28;20450;-66
2022/03/22 07:37:32;;;;;;;21.10;17.40;;;4.60;99.90;;;;;;5049808;28;20443;-66
2022/03/22 07:39:59;;;;;;;23.33;18.33;;;4.70;99.90;;;;;;5049524;28;20460;-65
2022/03/22 07:42:29;;;;;;;22.00;16.80;;;4.90;99.90;;;;;;5050045;28;20454;-66
2022/03/22 07:44:57;;;;;;;21.13;16.53;;;5.00;99.90;;;;;;5049015;28;20459;-66
2022/03/22 07:47:24;;;;;;;20.27;15.40;;;5.20;99.90;;;;;;5049595;28;20614;-65
2022/03/22 07:55:20;;;;;;;18.23;14.30;;;5.60;99.90;;;;;;5049051;28;20435;-67
2022/03/22 07:57:48;;;;;;;19.20;15.87;;;5.80;99.90;;;;;;5049914;28;20543;-65
2022/03/22 08:00:18;;;;;;;19.70;16.07;;;5.90;99.90;;;;;;5049327;28;20448;-68
2022/03/22 08:02:56;;;;;;;18.13;14.43;;;6.10;99.90;;;;;;5049875;28;20456;-65
2022/03/22 08:05:23;;;;;;;19.37;14.80;;;6.30;99.90;;;;;;5049306;28;20444;-65
2022/03/22 08:07:51;;;;;;;19.63;15.87;;;6.50;99.90;;;;;;5049690;28;20499;-65
2022/03/22 08:10:18;;;;;;;20.57;16.67;;;6.60;99.90;;;;;;5049630;28;20880;-65
2022/03/22 08:12:46;;;;;;;17.07;14.63;;;6.80;99.90;;;;;;5049840;28;20447;-66
2022/03/22 08:15:14;;;;;;;16.97;15.00;;;7.00;99.90;;;;;;5049002;28;20814;-66
2022/03/22 08:17:41;;;;;;;25.10;15.50;;;7.20;99.90;;;;;;5049737;28;20514;-64
2022/03/22 08:20:10;;;;;;;20.13;14.77;;;7.40;99.90;;;;;;5049271;28;20470;-65
2022/03/22 08:22:48;;;;;;;15.20;13.47;;;7.50;99.90;;;;;;5049398;28;20980;-65
2022/03/22 08:25:16;;;;;;;22.37;15.07;;;7.70;99.90;;;;;;5048699;28;20459;-66
2022/03/22 08:27:42;;;;;;;18.73;14.33;;;7.90;99.90;;;;;;5049147;28;20487;-65
2022/03/22 08:30:12;;;;;;;15.57;13.60;;;8.10;99.90;;;;;;5048945;28;20566;-66
2022/03/22 08:32:41;;;;;;;18.47;15.37;;;8.40;99.90;;;;;;5049362;28;20459;-67
2022/03/22 08:35:08;;;;;;;17.27;15.10;;;8.60;99.90;;;;;;5048837;28;20478;-66
2022/03/22 08:37:36;;;;;;;19.47;13.73;;;8.80;99.90;;;;;;5049344;28;20468;-66
2022/03/22 08:40:04;;;;;;;16.20;13.50;;;9.00;99.90;;;;;;5048931;28;20827;-66
2022/03/22 08:42:31;;;;;;;17.83;15.57;;;9.30;99.90;;;;;;5049066;28;20447;-66
2022/03/22 08:44:59;;;;;;;16.93;14.70;;;9.60;98.80;;;;;;5048587;28;20446;-66
2022/03/22 08:47:26;;;;;;;15.80;14.03;;;10.00;97.50;;;;;;5049758;28;20463;-66
2022/03/22 08:49:54;;;;;;;20.30;14.03;;;10.30;96.30;;;;;;5053203;28;20443;-67
2022/03/22 08:52:21;;;;;;;19.80;14.70;;;10.60;95.90;;;;;;5052657;28;20964;-66
2022/03/22 08:54:48;;;;;;;17.43;14.63;;;10.90;95.30;;;;;;5052287;28;20869;-66
2022/03/22 08:57:15;;;;;;;17.90;15.53;;;11.00;94.30;;;;;;5052714;28;20452;-67
2022/03/22 08:59:42;;;;;;;15.90;13.87;;;11.30;94.10;;;;;;5053021;28;20491;-66
2022/03/22 09:02:10;;;;;;;15.03;13.43;;;11.50;91.90;;;;;;5052752;28;20456;-66
2022/03/22 09:07:22;;;;;;;18.13;14.83;;;11.70;91.20;;;;;;5052501;28;20419;-66
2022/03/22 09:09:49;;;;;;;16.20;14.57;;;11.70;89.00;;;;;;5052310;28;20490;-66
2022/03/22 09:12:15;;;;;;;17.37;13.93;;;12.00;90.90;;;;;;5052417;28;20444;-66
2022/03/22 09:14:42;;;;;;;19.80;15.37;;;12.30;88.80;;;;;;5051787;28;20440;-65
2022/03/22 09:17:09;;;;;;;18.57;14.70;;;12.60;87.10;;;;;;5052260;28;20873;-67
2022/03/22 09:19:36;;;;;;;17.90;14.83;;;13.10;89.50;;;;;;5052263;28;20474;-66
2022/03/22 09:22:05;;;;;;;16.83;15.00;;;13.60;86.30;;;;;;5052155;28;20527;-66
2022/03/22 09:24:34;;;;;;;17.40;13.97;;;14.20;83.00;;;;;;5051629;28;20448;-66
2022/03/22 09:27:01;;;;;;;17.03;14.70;;;14.40;81.90;;;;;;5052146;28;20462;-66
2022/03/22 09:29:28;;;;;;;19.43;17.07;;;14.80;79.20;;;;;;5052028;28;21068;-66
2022/03/22 09:31:56;;;;;;;16.63;14.93;;;15.20;76.50;;;;;;5051809;28;20448;-67
2022/03/22 09:34:24;;;;;;;19.03;17.23;;;15.50;78.10;;;;;;5051391;28;20502;-66
2022/03/22 09:36:51;;;;;;;17.30;15.70;;;15.60;73.00;;;;;;5052091;28;20456;-66
2022/03/22 09:39:19;;;;;;;18.23;16.47;;;15.80;71.70;;;;;;5052029;28;20491;-66
2022/03/22 09:41:49;;;;;;;16.43;14.80;;;15.70;71.60;;;;;;5051801;28;20448;-65
2022/03/22 09:44:18;;;;;;;17.10;15.43;;;16.10;71.70;;;;;;5051325;28;20525;-66
2022/03/22 09:46:46;;;;;;;19.87;17.67;;;16.30;71.00;;;;;;5051779;28;20456;-66
2022/03/22 09:49:13;;;;;;;19.00;17.00;;;16.20;70.80;;;;;;5051755;28;20912;-66
2022/03/22 09:51:48;;;;;;;19.53;16.40;;;16.00;70.80;;;;;;5051623;28;20447;-66
2022/03/22 09:54:17;;;;;;;18.47;16.57;;;16.10;70.50;;;;;;5051518;28;20447;-65
2022/03/22 09:56:45;;;;;;;19.53;16.37;;;16.50;70.10;;;;;;5052081;28;20455;-64
2022/03/22 09:59:15;;;;;;;20.00;17.87;;;16.60;64.20;;;;;;5051456;28;20499;-66
2022/03/22 10:01:42;;;;;;;18.30;16.40;;;16.10;67.00;;;;;;5051413;28;20459;-66
2022/03/22 10:04:13;;;;;;;19.03;16.70;;;15.60;67.90;;;;;;5051472;28;20444;-66
2022/03/22 10:06:45;;;;;;;19.37;16.70;;;15.90;69.10;;;;;;5051829;28;20482;-66
2022/03/22 10:09:12;;;;;;;18.43;16.30;;;16.40;68.50;;;;;;5051656;28;21045;-63
2022/03/22 10:11:41;;;;;;;21.03;17.37;;;16.50;63.10;;;;;;5051297;28;20821;-67
2022/03/22 10:14:09;;;;;;;17.37;15.77;;;16.60;62.70;;;;;;5050581;28;20448;-66
2022/03/22 10:16:48;;;;;;;17.77;16.00;;;16.50;61.90;;;;;;5051618;28;20455;-64
2022/03/22 10:19:22;;;;;;;18.87;16.90;;;16.40;62.60;;;;;;5051185;28;20471;-65
2022/03/22 10:21:50;;;;;;;19.37;17.37;;;16.80;62.70;;;;;;5050930;28;20449;-65
2022/03/22 10:24:17;;;;;;;19.10;17.00;;;17.30;63.10;;;;;;5050471;28;21144;-66
2022/03/22 10:26:44;;;;;;;18.07;16.10;;;17.70;62.20;;;;;;5050875;28;20543;-64
2022/03/22 10:29:13;;;;;;;18.43;16.53;;;18.30;60.90;;;;;;5050808;28;20586;-65
2022/03/22 10:31:40;;;;;;;17.07;15.47;;;18.70;58.40;;;;;;5050606;28;20444;-67
2022/03/22 10:34:09;;;;;;;18.87;16.70;;;19.00;57.30;;;;;;5050496;28;21015;-66
2022/03/22 10:36:36;;;;;;;18.43;16.43;;;19.20;56.40;;;;;;5050837;28;20531;-67
2022/03/22 10:39:06;;;;;;;17.07;15.37;;;19.00;55.30;;;;;;5050602;28;20460;-66
2022/03/22 10:41:38;;;;;;;19.23;16.70;;;18.80;58.40;;;;;;5050509;28;20459;-66
2022/03/22 10:44:06;;;;;;;19.07;17.17;;;19.30;56.20;;;;;;5050281;28;20436;-64
2022/03/22 10:46:34;;;;;;;19.20;17.30;;;19.70;56.30;;;;;;5050575;28;20451;-67
2022/03/22 10:49:07;;;;;;;19.53;17.60;;;20.00;56.30;;;;;;5050651;28;20488;-67
2022/03/22 10:51:37;;;;;;;19.73;17.73;;;20.40;52.90;;;;;;5050335;28;20459;-67
2022/03/22 10:54:04;;;;;;;20.00;17.90;;;20.50;53.20;;;;;;5049978;28;20450;-67
2022/03/22 10:56:33;;;;;;;20.80;18.60;;;19.80;50.20;;;;;;5050803;28;20474;-66
2022/03/22 10:59:01;;;;;;;18.50;16.53;;;19.40;51.80;;;;;;5050576;28;20494;-65
2022/03/22 11:01:28;;;;;;;18.30;16.03;;;19.60;51.80;;;;;;5050212;28;20454;-68
2022/03/22 11:03:58;;;;;;;19.57;17.77;;;19.70;51.10;;;;;;5050406;28;20448;-65
2022/03/22 11:06:31;;;;;;;18.57;16.77;;;19.50;50.60;;;;;;5049565;28;20980;-67
2022/03/22 11:09:02;;;;;;;18.33;16.23;;;19.20;52.20;;;;;;5050351;28;20559;-64
2022/03/22 11:11:31;;;;;;;19.27;17.47;;;19.80;53.10;;;;;;5049030;28;21131;-65
2022/03/22 11:13:58;;;;;;;19.50;17.60;;;20.10;50.90;;;;;;5050150;28;20479;-64
2022/03/22 11:16:26;;;;;;;21.30;18.47;;;20.00;50.80;;;;;;5049678;28;20499;-65
2022/03/22 11:18:54;;;;;;;19.00;17.07;;;20.50;52.40;;;;;;5050067;28;20989;-65
2022/03/22 11:21:21;;;;;;;18.57;16.67;;;21.10;51.70;;;;;;5049838;28;21255;-65
2022/03/22 11:23:49;;;;;;;21.70;18.83;;;21.80;51.90;;;;;;5050044;28;20495;-65
2022/03/22 11:26:20;;;;;;;18.53;16.60;;;21.20;48.40;;;;;;5049513;28;20452;-66
2022/03/22 11:28:49;;;;;;;19.10;17.30;;;21.80;50.30;;;;;;5049972;28;20484;-67
2022/03/22 11:31:20;;;;;;;19.83;17.63;;;22.20;49.50;;;;;;5049603;28;20440;-66
2022/03/22 11:36:43;;;;;;;20.40;18.40;;;23.40;47.90;;;;;;5049887;28;20834;-66
2022/03/22 11:39:11;;;;;;;20.57;18.37;;;22.80;48.00;;;;;;5049894;28;20471;-66
2022/03/22 11:44:35;;;;;;;21.93;18.80;;;23.30;45.70;;;;;;5049398;28;20427;-66
2022/03/22 11:47:07;;;;;;;20.83;18.57;;;23.20;45.40;;;;;;5050104;28;20455;-66
2022/03/22 11:49:49;;;;;;;20.53;18.33;;;23.70;45.40;;;;;;5050046;28;20538;-66
2022/03/22 11:52:17;;;;;;;22.37;20.03;;;22.90;45.00;;;;;;5049555;28;20940;-67
2022/03/22 11:54:55;;;;;;;20.23;17.40;;;23.10;45.90;;;;;;5049243;28;20451;-66
2022/03/22 11:57:23;;;;;;;20.23;18.23;;;22.50;45.30;;;;;;5049787;28;20973;-66
2022/03/22 11:59:52;;;;;;;20.70;18.53;;;22.70;45.90;;;;;;5049768;28;20440;-66
2022/03/22 12:02:22;;;;;;;20.47;18.43;;;23.60;45.20;;;;;;5049316;28;20498;-66
2022/03/22 12:04:54;;;;;;;21.03;19.10;;;24.50;46.40;;;;;;5048842;28;20456;-66
2022/03/22 12:07:28;;;;;;;21.47;19.10;;;24.40;42.50;;;;;;5049581;28;20448;-66
2022/03/22 12:10:03;;;;;;;18.90;17.00;;;22.60;43.90;;;;;;5049521;28;20487;-67
2022/03/22 12:12:32;;;;;;;20.60;18.50;;;21.90;47.00;;;;;;5049057;28;21126;-66
2022/03/22 12:15:01;;;;;;;23.83;19.97;;;22.00;45.00;;;;;;5048933;28;20450;-66
2022/03/22 12:17:29;;;;;;;22.17;19.83;;;22.10;45.50;;;;;;5049509;28;20470;-66
2022/03/22 12:20:00;;;;;;;21.73;18.67;;;22.20;46.20;;;;;;5049376;28;20459;-66
2022/03/22 12:22:27;;;;;;;22.10;19.90;;;22.00;45.90;;;;;;5051518;28;20455;-66
2022/03/22 12:24:57;;;;;;;21.27;19.07;;;22.20;46.70;;;;;;5052673;28;20444;-65
2022/03/22 12:27:24;;;;;;;21.10;19.00;;;23.40;47.60;;;;;;5053276;28;20451;-65
2022/03/22 12:29:54;;;;;;;21.83;19.60;;;23.70;43.70;;;;;;5053192;28;20479;-64
2022/03/22 12:32:25;;;;;;;20.77;18.60;;;24.10;44.10;;;;;;5053204;28;20475;-66
2022/03/22 12:34:53;;;;;;;21.57;19.10;;;24.40;42.70;;;;;;5052693;28;20501;-66
2022/03/22 12:37:20;;;;;;;20.40;18.40;;;24.50;42.70;;;;;;5053198;28;21013;-67
2022/03/22 12:39:48;;;;;;;20.07;18.20;;;24.50;41.40;;;;;;5053117;28;20450;-66
2022/03/22 12:42:17;;;;;;;21.07;18.83;;;24.70;42.70;;;;;;5052766;28;20547;-67
2022/03/22 12:44:46;;;;;;;20.40;18.33;;;25.20;41.20;;;;;;5052574;28;20519;-66
2022/03/22 12:47:17;;;;;;;22.23;18.93;;;26.10;41.70;;;;;;5052905;28;20954;-67
2022/03/22 12:49:44;;;;;;;21.63;19.43;;;25.80;39.00;;;;;;5053114;28;20706;-66
2022/03/22 12:52:12;;;;;;;22.53;20.23;;;24.30;40.20;;;;;;5052769;28;20472;-66
2022/03/22 12:54:41;;;;;;;21.10;18.27;;;23.00;42.30;;;;;;5052108;28;20454;-66
2022/03/22 12:57:10;;;;;;;20.73;18.63;;;22.00;43.50;;;;;;5053001;28;20454;-66
2022/03/22 12:59:38;;;;;;;19.50;17.70;;;22.20;43.40;;;;;;5052859;28;20581;-66
2022/03/22 13:02:07;;;;;;;20.00;17.87;;;23.60;43.90;;;;;;5052392;28;20969;-66
2022/03/22 13:04:46;;;;;;;20.90;18.90;;;25.60;44.00;;;;;;5052000;28;20452;-66
2022/03/22 13:07:14;;;;;;;22.83;20.47;;;27.30;40.00;;;;;;5052921;28;20452;-66
2022/03/22 13:12:26;;;;;;;27.17;19.03;;;25.40;39.80;;;;;;5052388;28;20928;-66
2022/03/22 13:15:08;;;;;;;24.33;20.43;;;25.00;39.60;;;;;;5051779;28;20539;-66
2022/03/22 13:17:37;;;;;;;20.10;18.17;;;25.50;40.10;;;;;;5052454;28;20468;-66